createdAt,value
2023-02-18T00:07:24.193Z,8.40
2023-02-18T00:17:31.942Z,8.18
2023-02-18T00:27:39.041Z,7.90
2023-02-18T00:37:46.652Z,7.62
2023-02-18T00:47:53.602Z,7.42
2023-02-18T00:58:00.764Z,7.25
2023-02-18T01:08:06.600Z,7.02
2023-02-18T01:18:14.764Z,6.85
2023-02-18T01:28:21.809Z,6.70
2023-02-18T01:38:28.905Z,6.50
2023-02-18T01:48:39.525Z,6.31
2023-02-18T01:58:47.480Z,6.23
2023-02-18T02:08:59.732Z,6.21
2023-02-18T02:19:08.002Z,6.14
2023-02-18T02:29:50.834Z,6.02
2023-02-18T02:40:04.232Z,6.02
2023-02-18T02:50:16.050Z,5.94
2023-02-18T03:00:24.840Z,5.80
2023-02-18T03:10:40.364Z,5.59
2023-02-18T03:20:52.303Z,5.48
2023-02-18T03:31:02.268Z,5.42
2023-02-18T03:41:09.794Z,5.33
2023-02-18T03:51:15.936Z,5.19
2023-02-18T04:01:23.663Z,5.16
2023-02-18T04:11:30.934Z,5.13
2023-02-18T04:21:38.240Z,5.00
2023-02-18T04:31:45.537Z,4.89
2023-02-18T04:41:52.904Z,4.90
2023-02-18T04:52:00.699Z,4.95
2023-02-18T05:02:08.188Z,4.81
2023-02-18T05:12:15.658Z,4.72
2023-02-18T05:22:22.847Z,4.63
2023-02-18T05:32:29.975Z,4.43
2023-02-18T05:42:37.472Z,4.42
2023-02-18T05:52:44.607Z,4.45
2023-02-18T06:02:51.578Z,4.44
2023-02-18T06:13:00.298Z,4.46
2023-02-18T06:23:07.678Z,4.56
2023-02-18T06:33:15.417Z,4.65
2023-02-18T06:43:23.472Z,4.83
2023-02-18T06:53:30.546Z,4.98
2023-02-18T07:03:37.758Z,5.17
2023-02-18T07:13:44.785Z,5.33
2023-02-18T07:23:52.370Z,5.35
2023-02-18T07:33:59.993Z,5.44
2023-02-18T07:44:05.567Z,5.61
2023-02-18T07:54:10.048Z,5.75
2023-02-18T08:04:17.381Z,5.86
2023-02-18T08:14:24.857Z,6.03
2023-02-18T08:24:32.335Z,6.27
2023-02-18T08:34:39.591Z,6.41
2023-02-18T08:44:45.761Z,6.56
2023-02-18T08:54:52.936Z,6.70
2023-02-18T09:05:00.175Z,6.83
2023-02-18T09:15:06.448Z,6.85
2023-02-18T09:25:12.438Z,6.81
2023-02-18T09:35:18.361Z,6.79
2023-02-18T09:45:26.741Z,6.87
2023-02-18T09:55:38.983Z,6.91
2023-02-18T10:05:44.056Z,7.10
2023-02-18T10:15:53.039Z,7.44
2023-02-18T10:26:03.925Z,7.71
2023-02-18T10:36:28.942Z,7.88
2023-02-18T10:46:34.995Z,7.95
2023-02-18T10:56:43.927Z,8.09
2023-02-18T11:06:53.059Z,8.10
2023-02-18T11:17:10.590Z,7.82
2023-02-18T11:27:18.360Z,7.36
2023-02-18T11:37:28.477Z,6.63
2023-02-18T11:47:37.829Z,6.15
2023-02-18T11:57:48.921Z,5.84
2023-02-18T12:07:57.340Z,5.78
2023-02-18T12:18:26.820Z,5.67
2023-02-18T12:28:33.557Z,5.76
2023-02-18T12:38:46.436Z,6.00
2023-02-18T12:49:02.166Z,5.84
2023-02-18T12:59:07.305Z,5.62
2023-02-18T13:09:12.592Z,5.66
2023-02-18T13:19:19.788Z,5.71
2023-02-18T13:29:33.841Z,5.70
2023-02-18T13:39:49.289Z,5.71
2023-02-18T13:49:56.638Z,5.69
2023-02-18T14:00:08.126Z,5.66
2023-02-18T14:10:26.806Z,5.51
2023-02-18T14:20:46.971Z,5.49
2023-02-18T14:30:55.031Z,5.48
2023-02-18T14:41:40.483Z,5.51
2023-02-18T14:51:49.433Z,5.49
2023-02-18T15:01:55.491Z,5.43
2023-02-18T15:12:00.144Z,5.37
2023-02-18T15:22:07.632Z,5.36
2023-02-18T15:32:16.457Z,5.31
2023-02-18T15:42:24.796Z,5.28
2023-02-18T15:52:34.676Z,5.37
2023-02-18T16:02:51.578Z,5.50
2023-02-18T16:13:00.707Z,5.61
2023-02-18T16:23:15.077Z,5.83
2023-02-18T16:33:22.390Z,6.09
2023-02-18T16:43:30.241Z,6.35
2023-02-18T16:53:37.551Z,6.55
2023-02-18T17:03:46.300Z,6.80
2023-02-18T17:13:58.334Z,7.05
2023-02-18T17:24:04.409Z,7.19
2023-02-18T17:34:15.696Z,7.33
2023-02-18T17:44:24.844Z,7.54
2023-02-18T17:54:32.160Z,7.72
2023-02-18T18:04:39.351Z,7.84
2023-02-18T18:14:46.509Z,7.88
2023-02-18T18:24:56.353Z,7.89
2023-02-18T18:35:03.643Z,7.90
2023-02-18T18:45:17.328Z,7.91
2023-02-18T18:55:59.645Z,7.88
2023-02-18T19:06:07.651Z,7.83
2023-02-18T19:16:14.496Z,7.76
2023-02-18T19:26:20.899Z,7.55
2023-02-18T19:36:28.200Z,7.40
2023-02-18T19:46:35.754Z,7.37
2023-02-18T19:56:42.866Z,7.39
2023-02-18T20:06:50.162Z,7.42
2023-02-18T20:16:56.342Z,7.42
2023-02-18T20:27:03.947Z,7.29
2023-02-18T20:37:11.144Z,7.04
2023-02-18T20:47:18.824Z,6.70
2023-02-18T20:57:26.418Z,6.48
2023-02-18T21:07:34.360Z,6.25
2023-02-18T21:17:41.537Z,6.05
2023-02-18T21:27:48.588Z,5.89
2023-02-18T21:37:55.927Z,5.72
2023-02-18T21:48:06.346Z,5.54
2023-02-18T21:58:13.638Z,5.35
2023-02-18T22:08:21.425Z,5.19
2023-02-18T22:18:32.120Z,5.05
2023-02-18T22:28:39.923Z,4.95
2023-02-18T22:38:47.213Z,4.93
2023-02-18T22:48:55.954Z,4.91
2023-02-18T22:59:03.068Z,4.93
2023-02-18T23:09:14.457Z,4.93
2023-02-18T23:19:22.133Z,4.92
2023-02-18T23:29:29.253Z,4.92
2023-02-18T23:39:37.021Z,4.90
2023-02-18T23:49:44.141Z,4.82
2023-02-18T23:59:51.034Z,4.76
